Time;durP1;ratioP1;P1;durP2;ratioP2;P2;SDS_P1;SDS_P2;PMS_P1;PMS_P2;Temp;Humidity;BMP_temperature;BMP_pressure;BME280_temperature;BME280_humidity;BME280_pressure;Samples;Min_cycle;Max_cycle;Signal;HPM_P1;HPM_P2
2022/09/10 00:00:56;;;;;;;4.15;1.70;;;17.80;99.90;;;;;;2554967;23;20019;-72
2022/09/10 00:01:58;;;;;;;5.85;1.60;;;17.90;99.90;;;;;;2555187;23;20005;-72
2022/09/10 00:03:00;;;;;;;3.97;1.70;;;17.80;99.90;;;;;;2554737;23;20453;-72
2022/09/10 00:04:02;;;;;;;4.93;1.65;;;17.80;99.90;;;;;;2555408;23;20059;-72
2022/09/10 00:05:03;;;;;;;3.38;1.90;;;17.80;99.90;;;;;;2554977;23;20005;-72
2022/09/10 00:06:04;;;;;;;3.50;1.80;;;17.80;99.90;;;;;;2554729;23;20095;-72
2022/09/10 00:07:04;;;;;;;4.32;1.80;;;17.80;99.90;;;;;;2555344;23;20008;-72
2022/09/10 00:08:06;;;;;;;4.40;1.77;;;17.80;99.90;;;;;;2554885;23;20076;-72
2022/09/10 00:09:07;;;;;;;5.25;1.90;;;17.80;99.90;;;;;;2555344;23;20001;-72
2022/09/10 00:10:09;;;;;;;3.47;1.60;;;17.80;99.90;;;;;;2555132;23;20056;-72
2022/09/10 00:11:09;;;;;;;5.82;1.75;;;17.80;99.90;;;;;;2555025;23;20054;-72
2022/09/10 00:12:10;;;;;;;4.82;1.77;;;17.80;99.90;;;;;;2555286;23;20005;-72
2022/09/10 00:13:14;;;;;;;4.35;1.73;;;17.80;99.90;;;;;;2554852;23;20009;-72
2022/09/10 00:14:19;;;;;;;4.13;1.70;;;17.80;99.90;;;;;;2555184;23;20001;-72
2022/09/10 00:15:19;;;;;;;5.88;1.90;;;17.80;99.90;;;;;;2555186;23;20011;-72
2022/09/10 00:16:20;;;;;;;6.57;1.73;;;17.80;99.90;;;;;;2554915;23;20009;-72
2022/09/10 00:17:23;;;;;;;5.55;1.95;;;17.80;99.90;;;;;;2555040;23;20029;-72
2022/09/10 00:18:23;;;;;;;5.95;2.10;;;17.80;99.90;;;;;;2555187;23;20080;-72
2022/09/10 00:19:24;;;;;;;10.05;1.80;;;17.80;99.90;;;;;;2554923;23;20016;-72
2022/09/10 00:20:25;;;;;;;4.82;1.75;;;17.80;99.90;;;;;;2555129;23;20012;-72
2022/09/10 00:21:26;;;;;;;5.30;1.80;;;17.80;99.90;;;;;;2555106;23;20056;-72
2022/09/10 00:22:27;;;;;;;2.97;1.48;;;17.80;99.90;;;;;;2555230;23;20080;-72
2022/09/10 00:23:28;;;;;;;2.10;1.60;;;17.80;99.90;;;;;;2554622;23;20024;-72
2022/09/10 00:24:29;;;;;;;4.25;1.80;;;17.80;99.90;;;;;;2555096;23;20016;-72
2022/09/10 00:25:33;;;;;;;4.65;1.90;;;17.80;99.90;;;;;;2555078;23;20164;-72
2022/09/10 00:26:39;;;;;;;2.92;1.70;;;17.80;99.90;;;;;;2554420;23;20011;-72
2022/09/10 00:27:39;;;;;;;4.32;1.58;;;17.80;99.90;;;;;;2555397;23;20013;-72
2022/09/10 00:28:41;;;;;;;3.45;1.42;;;17.80;99.90;;;;;;2554854;23;20001;-72
2022/09/10 00:29:42;;;;;;;5.15;1.63;;;17.80;99.90;;;;;;2555206;23;19996;-72
2022/09/10 00:30:44;;;;;;;3.40;1.35;;;17.80;99.90;;;;;;2554924;23;19993;-73
2022/09/10 00:31:46;;;;;;;4.47;1.77;;;17.80;99.90;;;;;;2555384;23;20001;-72
2022/09/10 00:32:51;;;;;;;4.05;1.52;;;17.80;99.90;;;;;;2555211;23;20004;-72
2022/09/10 00:33:53;;;;;;;3.63;1.30;;;17.80;99.90;;;;;;2554614;23;20009;-72
2022/09/10 00:34:54;;;;;;;5.65;1.58;;;17.80;99.90;;;;;;2554874;23;20009;-72
2022/09/10 00:35:56;;;;;;;5.22;1.58;;;17.80;99.90;;;;;;2554648;23;20001;-72
2022/09/10 00:36:58;;;;;;;2.75;1.20;;;17.80;99.90;;;;;;2555231;23;20002;-72
2022/09/10 00:37:58;;;;;;;3.20;1.58;;;17.80;99.90;;;;;;2554818;23;20025;-72
2022/09/10 00:39:02;;;;;;;3.88;1.25;;;17.80;99.90;;;;;;2555088;23;20031;-72
2022/09/10 00:40:02;;;;;;;4.25;1.80;;;17.80;99.90;;;;;;2555292;23;20009;-72
2022/09/10 00:41:04;;;;;;;3.67;1.13;;;17.80;99.90;;;;;;2555093;23;20012;-72
2022/09/10 00:42:05;;;;;;;4.88;1.65;;;17.80;99.90;;;;;;2555088;23;20160;-72
2022/09/10 00:43:19;;;;;;;4.30;1.58;;;17.80;99.90;;;;;;2554605;23;20001;-72
2022/09/10 00:44:41;;;;;;;4.85;1.40;;;17.80;99.90;;;;;;2555251;23;20493;-72
2022/09/10 00:45:44;;;;;;;2.83;1.10;;;17.80;99.90;;;;;;2554894;23;20456;-72
2022/09/10 00:46:50;;;;;;;7.03;1.50;;;17.80;99.90;;;;;;2555237;23;20001;-72
2022/09/10 00:47:53;;;;;;;5.95;1.52;;;17.80;99.90;;;;;;2554744;23;20009;-72
2022/09/10 00:48:57;;;;;;;4.00;1.23;;;17.80;99.90;;;;;;2555064;23;20155;-72
2022/09/10 00:50:02;;;;;;;4.10;1.15;;;17.80;99.90;;;;;;2554992;23;20001;-72
2022/09/10 00:51:04;;;;;;;3.50;1.50;;;17.80;99.90;;;;;;2555031;23;20067;-72
2022/09/10 00:52:06;;;;;;;8.27;1.55;;;17.80;99.90;;;;;;2555103;23;20076;-72
2022/09/10 00:53:11;;;;;;;5.13;1.45;;;17.80;99.90;;;;;;2566951;23;20491;-72
2022/09/10 00:54:14;;;;;;;4.32;1.10;;;17.80;99.90;;;;;;2567639;23;20004;-72
2022/09/10 00:55:16;;;;;;;3.17;1.30;;;17.80;99.90;;;;;;2567272;23;20005;-72
2022/09/10 00:56:17;;;;;;;3.22;1.67;;;17.80;99.90;;;;;;2566770;23;20059;-72
2022/09/10 00:57:20;;;;;;;5.72;1.55;;;17.80;99.90;;;;;;2567584;23;20005;-72
2022/09/10 00:58:22;;;;;;;4.20;1.60;;;17.80;99.90;;;;;;2567122;23;20028;-72
2022/09/10 00:59:25;;;;;;;4.70;1.58;;;17.80;99.90;;;;;;2567279;23;20032;-72
2022/09/10 01:00:26;;;;;;;4.82;1.38;;;17.90;99.90;;;;;;2567492;23;20378;-72
2022/09/10 01:01:26;;;;;;;4.45;2.03;;;17.80;99.90;;;;;;2567397;23;20043;-72
2022/09/10 01:02:27;;;;;;;2.90;1.25;;;17.80;99.90;;;;;;2553952;23;20020;-72
2022/09/10 01:03:30;;;;;;;3.55;1.50;;;17.90;99.90;;;;;;2553807;23;20088;-72
2022/09/10 01:04:31;;;;;;;4.47;1.63;;;17.90;99.90;;;;;;2567724;23;20032;-72
2022/09/10 01:05:33;;;;;;;3.22;1.60;;;17.90;99.90;;;;;;2567071;23;20496;-72
2022/09/10 01:06:34;;;;;;;2.70;1.10;;;17.90;99.90;;;;;;2567557;23;20011;-72
2022/09/10 01:07:35;;;;;;;3.58;1.70;;;17.90;99.90;;;;;;2567100;23;20000;-72
2022/09/10 01:08:35;;;;;;;4.68;1.55;;;17.90;99.90;;;;;;2567313;23;20464;-72
2022/09/10 01:09:38;;;;;;;5.07;1.40;;;17.90;99.90;;;;;;2567180;23;20435;-72
2022/09/10 01:11:07;;;;;;;3.92;1.40;;;17.90;99.90;;;;;;2567651;23;19997;-72
2022/09/10 01:12:19;;;;;;;3.78;1.48;;;17.90;99.90;;;;;;2567249;23;20346;-72
2022/09/10 01:13:28;;;;;;;2.58;1.60;;;17.90;99.90;;;;;;2566920;23;20303;-72
2022/09/10 01:15:04;;;;;;;2.72;1.25;;;17.90;99.90;;;;;;2567430;23;20054;-72
2022/09/10 01:16:22;;;;;;;6.15;1.67;;;17.90;99.90;;;;;;2567261;23;20001;-72
2022/09/10 01:17:36;;;;;;;3.50;1.40;;;17.90;99.90;;;;;;2567142;23;20441;-72
2022/09/10 01:18:48;;;;;;;5.75;1.70;;;17.80;99.90;;;;;;2567313;23;20035;-72
2022/09/10 01:20:34;;;;;;;3.70;1.50;;;17.90;99.90;;;;;;2567383;23;20005;-72
2022/09/10 01:22:05;;;;;;;1.55;1.30;;;17.80;99.90;;;;;;2567656;23;20007;-72
2022/09/10 01:23:20;;;;;;;4.10;1.30;;;17.80;99.90;;;;;;2566449;23;20382;-72
2022/09/10 01:24:43;;;;;;;2.17;1.10;;;17.80;99.90;;;;;;2566912;23;20469;-72
2022/09/10 01:26:10;;;;;;;4.80;1.42;;;17.80;99.90;;;;;;2566986;23;19996;-72
2022/09/10 01:27:30;;;;;;;2.95;1.20;;;17.80;99.90;;;;;;2567275;23;20005;-72
2022/09/10 01:28:54;;;;;;;4.57;1.48;;;17.80;99.90;;;;;;2567076;23;20009;-72
2022/09/10 01:30:02;;;;;;;3.20;1.30;;;17.80;99.90;;;;;;2567229;23;20009;-72
2022/09/10 01:31:13;;;;;;;3.80;1.40;;;17.80;99.90;;;;;;2567248;23;20060;-72
2022/09/10 01:32:21;;;;;;;4.65;1.52;;;17.80;99.90;;;;;;2566735;23;20382;-72
2022/09/10 01:33:32;;;;;;;4.75;1.75;;;17.80;99.90;;;;;;2566842;23;20005;-72
2022/09/10 01:34:41;;;;;;;3.85;1.33;;;17.80;99.90;;;;;;2567474;23;20007;-72
2022/09/10 01:35:48;;;;;;;4.53;1.70;;;17.80;99.90;;;;;;2566822;23;20058;-72
2022/09/10 01:36:52;;;;;;;2.45;0.95;;;17.80;99.90;;;;;;2567448;23;19997;-72
2022/09/10 01:37:58;;;;;;;2.13;1.30;;;17.80;99.90;;;;;;2567323;23;20019;-72
2022/09/10 01:39:01;;;;;;;2.67;1.25;;;17.80;99.90;;;;;;2567199;23;20428;-72
2022/09/10 01:40:03;;;;;;;1.60;0.95;;;17.80;99.90;;;;;;2554047;23;20011;-72
2022/09/10 01:41:04;;;;;;;3.58;1.20;;;17.80;99.90;;;;;;2554363;23;20135;-72
2022/09/10 01:42:05;;;;;;;3.28;1.45;;;17.80;99.90;;;;;;2566869;23;20012;-72
2022/09/10 01:43:10;;;;;;;3.95;1.08;;;17.80;99.90;;;;;;2566762;23;20013;-72
2022/09/10 01:44:47;;;;;;;3.63;1.20;;;17.80;99.90;;;;;;2567513;23;20009;-72
2022/09/10 01:45:51;;;;;;;5.65;1.15;;;17.80;99.90;;;;;;2566784;23;20059;-72
2022/09/10 01:47:11;;;;;;;3.70;1.50;;;17.70;99.90;;;;;;2567244;23;20013;-72
2022/09/10 01:48:18;;;;;;;;;;;17.80;99.90;;;;;;2567907;23;20009;-72
2022/09/10 01:49:35;;;;;;;1.40;1.00;;;17.70;99.90;;;;;;2567194;23;20704;-72
2022/09/10 01:51:08;;;;;;;3.90;1.30;;;17.70;99.90;;;;;;2567060;23;20005;-72
2022/09/10 01:52:36;;;;;;;3.28;1.30;;;17.70;99.90;;;;;;2516916;23;20428;-72
2022/09/10 01:53:49;;;;;;;2.83;1.05;;;17.70;99.90;;;;;;2535142;23;20022;-72
2022/09/10 01:55:34;;;;;;;2.63;1.20;;;17.70;99.90;;;;;;2567274;23;20124;-72
2022/09/10 01:56:37;;;;;;;2.88;1.00;;;17.70;99.90;;;;;;2519916;23;20606;-72
2022/09/10 01:57:58;;;;;;;2.55;0.90;;;17.60;99.90;;;;;;2566767;23;20011;-72
2022/09/10 01:59:11;;;;;;;1.83;1.00;;;17.60;99.90;;;;;;2567274;23;20005;-72
2022/09/10 02:00:14;;;;;;;5.20;1.20;;;17.70;99.90;;;;;;2567143;23;20011;-72
2022/09/10 02:01:43;;;;;;;1.60;1.00;;;17.60;99.90;;;;;;2567293;23;20004;-72
2022/09/10 02:03:05;;;;;;;4.72;1.35;;;17.60;99.90;;;;;;2567051;23;20104;-72
2022/09/10 02:04:08;;;;;;;3.53;1.20;;;17.60;99.90;;;;;;2567096;23;20011;-72
2022/09/10 02:05:10;;;;;;;3.08;1.13;;;17.60;99.90;;;;;;2567217;23;20005;-72
2022/09/10 02:06:15;;;;;;;3.45;1.10;;;17.60;99.90;;;;;;2566890;23;20015;-72
2022/09/10 02:07:21;;;;;;;4.43;1.33;;;17.60;99.90;;;;;;2566914;23;20012;-72
2022/09/10 02:08:36;;;;;;;3.92;1.30;;;17.60;99.90;;;;;;2567017;23;20069;-72
2022/09/10 02:09:37;;;;;;;3.05;1.08;;;17.70;99.90;;;;;;2567209;23;20016;-72
2022/09/10 02:10:56;;;;;;;3.38;1.10;;;17.70;99.90;;;;;;2567198;23;20012;-72
2022/09/10 02:11:57;;;;;;;3.38;1.20;;;17.70;99.90;;;;;;2566868;23;20083;-72
2022/09/10 02:12:57;;;;;;;4.32;1.15;;;17.70;99.90;;;;;;2567227;23;20020;-72
2022/09/10 02:13:58;;;;;;;4.97;1.13;;;17.70;99.90;;;;;;2567042;23;19997;-72
2022/09/10 02:14:58;;;;;;;3.35;1.13;;;17.70;99.90;;;;;;2564380;23;20005;-72
2022/09/10 02:16:05;;;;;;;3.40;1.30;;;17.70;99.90;;;;;;2563729;23;20008;-72
2022/09/10 02:17:06;;;;;;;3.22;1.00;;;17.70;99.90;;;;;;2563728;23;20012;-72
2022/09/10 02:18:06;;;;;;;4.20;1.30;;;17.70;99.90;;;;;;2556180;23;20035;-72
2022/09/10 02:19:08;;;;;;;2.53;1.20;;;17.80;99.90;;;;;;2566613;23;20062;-72
2022/09/10 02:20:13;;;;;;;3.15;1.40;;;17.80;99.90;;;;;;2567289;23;20008;-72
2022/09/10 02:21:14;;;;;;;4.80;1.38;;;17.80;99.90;;;;;;2566921;23;19996;-72
2022/09/10 02:22:14;;;;;;;1.48;0.85;;;17.80;99.90;;;;;;2566958;23;20008;-72
2022/09/10 02:23:18;;;;;;;2.42;1.35;;;17.80;99.90;;;;;;2566286;23;20008;-72
2022/09/10 02:24:20;;;;;;;2.95;1.10;;;17.80;99.90;;;;;;2567457;23;20456;-72
2022/09/10 02:25:20;;;;;;;3.47;1.23;;;17.80;99.90;;;;;;2567119;23;20031;-72
2022/09/10 02:26:21;;;;;;;3.25;0.93;;;17.80;99.90;;;;;;2567021;23;20008;-72
2022/09/10 02:27:22;;;;;;;2.33;1.30;;;17.90;99.90;;;;;;2567063;23;20421;-72
2022/09/10 02:28:23;;;;;;;9.05;1.67;;;17.90;99.90;;;;;;2566560;23;20365;-72
2022/09/10 02:29:24;;;;;;;3.60;1.35;;;17.90;99.90;;;;;;2566948;23;20401;-72
2022/09/10 02:30:24;;;;;;;4.20;1.35;;;17.90;99.90;;;;;;2566956;23;20472;-72
2022/09/10 02:31:25;;;;;;;5.18;1.65;;;17.90;99.90;;;;;;2566789;23;20302;-72
2022/09/10 02:32:26;;;;;;;3.08;1.58;;;17.80;99.90;;;;;;2566691;23;20005;-72
2022/09/10 02:33:27;;;;;;;3.45;1.48;;;17.90;99.90;;;;;;2566523;23;20080;-72
2022/09/10 02:34:29;;;;;;;3.05;1.30;;;17.90;99.90;;;;;;2567109;23;20135;-72
2022/09/10 02:35:30;;;;;;;2.00;1.15;;;17.80;99.90;;;;;;2567054;23;20035;-72
2022/09/10 02:36:31;;;;;;;2.28;1.30;;;17.80;99.90;;;;;;2553408;23;20005;-72
2022/09/10 02:37:31;;;;;;;4.10;1.70;;;17.80;99.90;;;;;;2554217;23;20519;-72
2022/09/10 02:38:32;;;;;;;3.80;1.35;;;17.80;99.90;;;;;;2567023;23;20004;-72
2022/09/10 02:39:32;;;;;;;10.45;2.22;;;17.80;99.90;;;;;;2567156;23;20062;-72
2022/09/10 02:40:33;;;;;;;5.20;2.00;;;17.80;99.90;;;;;;2566895;23;20007;-72
2022/09/10 02:41:34;;;;;;;2.33;1.50;;;17.80;99.90;;;;;;2566645;23;20000;-72
2022/09/10 02:42:35;;;;;;;4.15;1.70;;;17.80;99.90;;;;;;2567449;23;20425;-72
2022/09/10 02:43:36;;;;;;;2.63;1.50;;;17.80;99.90;;;;;;2567134;23;20035;-72
2022/09/10 02:44:37;;;;;;;1.75;1.02;;;17.80;99.90;;;;;;2568079;23;19996;-72
2022/09/10 02:45:39;;;;;;;3.60;1.42;;;17.80;99.90;;;;;;2567838;23;20004;-72
2022/09/10 02:46:40;;;;;;;3.58;1.60;;;17.80;99.90;;;;;;2567887;23;20074;-72
2022/09/10 02:47:41;;;;;;;1.85;1.10;;;17.80;99.90;;;;;;2567312;23;20017;-72
2022/09/10 02:48:41;;;;;;;3.67;1.73;;;17.80;99.90;;;;;;2567809;23;20400;-72
2022/09/10 02:49:42;;;;;;;7.40;1.98;;;17.80;99.90;;;;;;2567901;23;20000;-72
2022/09/10 02:50:44;;;;;;;3.45;1.45;;;17.80;99.90;;;;;;2568115;23;20040;-72
2022/09/10 02:51:45;;;;;;;3.00;1.55;;;17.80;99.90;;;;;;2568055;23;20099;-72
2022/09/10 02:52:45;;;;;;;3.28;1.50;;;17.80;99.90;;;;;;2567488;23;20009;-72
2022/09/10 02:53:46;;;;;;;3.08;1.48;;;17.90;99.90;;;;;;2567817;23;20476;-72
2022/09/10 02:54:49;;;;;;;2.80;1.70;;;17.90;99.90;;;;;;2567870;23;20434;-72
2022/09/10 02:55:49;;;;;;;4.30;1.67;;;17.90;99.90;;;;;;2567587;23;20071;-72
2022/09/10 02:56:50;;;;;;;3.13;1.55;;;17.90;99.90;;;;;;2566941;23;20016;-72
2022/09/10 02:57:50;;;;;;;6.07;2.17;;;17.90;99.90;;;;;;2567380;23;20013;-72
2022/09/10 02:58:51;;;;;;;2.90;1.40;;;17.90;99.90;;;;;;2567924;23;20004;-72
2022/09/10 02:59:55;;;;;;;5.30;1.63;;;17.90;99.90;;;;;;2567928;23;20032;-72
2022/09/10 03:01:07;;;;;;;4.85;1.50;;;17.90;99.90;;;;;;2567883;23;20004;-72
2022/09/10 03:02:08;;;;;;;7.05;1.85;;;17.90;99.90;;;;;;2567756;23;20014;-72
2022/09/10 03:03:09;;;;;;;4.10;2.00;;;17.90;99.90;;;;;;2567495;23;20076;-72
2022/09/10 03:04:10;;;;;;;4.93;1.70;;;17.90;99.90;;;;;;2567974;23;20424;-72
2022/09/10 03:05:10;;;;;;;2.92;1.55;;;17.90;99.90;;;;;;2567874;23;20009;-72
2022/09/10 03:06:11;;;;;;;3.55;1.85;;;17.90;99.90;;;;;;2554236;23;20040;-72
2022/09/10 03:07:15;;;;;;;4.75;1.60;;;17.90;99.90;;;;;;2554874;23;20087;-72
2022/09/10 03:08:16;;;;;;;2.65;1.67;;;17.90;99.90;;;;;;2567550;23;20005;-72
2022/09/10 03:09:17;;;;;;;3.22;1.73;;;17.90;99.90;;;;;;2567228;23;20055;-72
2022/09/10 03:10:17;;;;;;;3.17;1.45;;;17.90;99.90;;;;;;2568140;23;20565;-72
2022/09/10 03:11:21;;;;;;;2.85;1.42;;;17.90;99.90;;;;;;2567888;23;20032;-72
2022/09/10 03:12:21;;;;;;;2.33;1.27;;;17.90;99.90;;;;;;2567653;23;20080;-72
2022/09/10 03:13:22;;;;;;;2.30;1.30;;;17.90;99.90;;;;;;2553861;23;20029;-72
2022/09/10 03:14:24;;;;;;;3.70;1.35;;;17.90;99.90;;;;;;2554540;23;20013;-72
2022/09/10 03:15:25;;;;;;;3.65;1.52;;;17.90;99.90;;;;;;2567555;23;20004;-72
2022/09/10 03:16:26;;;;;;;3.05;1.55;;;17.90;99.90;;;;;;2554225;23;20009;-72
2022/09/10 03:17:26;;;;;;;3.75;1.20;;;17.90;99.90;;;;;;2554344;23;20091;-72
2022/09/10 03:18:27;;;;;;;4.32;1.92;;;17.90;99.90;;;;;;2554629;23;20009;-72
2022/09/10 03:19:27;;;;;;;2.47;1.38;;;17.90;99.90;;;;;;2568091;23;20479;-72
2022/09/10 03:20:28;;;;;;;2.38;1.20;;;17.90;99.90;;;;;;2567659;23;20005;-72
2022/09/10 03:21:28;;;;;;;1.83;1.30;;;17.90;99.90;;;;;;2567336;23;20009;-72
2022/09/10 03:22:30;;;;;;;2.00;1.23;;;17.90;99.90;;;;;;2568042;23;20589;-72
2022/09/10 03:23:32;;;;;;;4.43;1.48;;;17.90;99.90;;;;;;2567287;23;20008;-72
2022/09/10 03:24:33;;;;;;;3.38;1.27;;;17.90;99.90;;;;;;2567783;23;20004;-72
2022/09/10 03:25:34;;;;;;;2.92;1.50;;;17.90;99.90;;;;;;2567966;23;20008;-72
2022/09/10 03:26:35;;;;;;;4.65;1.63;;;17.90;99.90;;;;;;2567125;23;20008;-72
2022/09/10 03:27:35;;;;;;;4.78;1.60;;;17.90;99.90;;;;;;2567879;23;20011;-72
2022/09/10 03:28:37;;;;;;;2.63;1.27;;;17.90;99.90;;;;;;2567534;23;20000;-72
2022/09/10 03:29:37;;;;;;;3.75;1.25;;;17.90;99.90;;;;;;2567651;23;20079;-72
2022/09/10 03:30:39;;;;;;;4.85;1.67;;;17.90;99.90;;;;;;2567548;23;20005;-72
2022/09/10 03:31:41;;;;;;;5.90;1.60;;;17.90;99.90;;;;;;2567600;23;20003;-72
2022/09/10 03:32:42;;;;;;;1.85;1.38;;;17.90;99.90;;;;;;2567845;23;20556;-72
2022/09/10 03:33:43;;;;;;;3.60;1.42;;;17.90;99.90;;;;;;2566911;23;20042;-72
2022/09/10 03:34:43;;;;;;;2.55;1.60;;;17.90;99.90;;;;;;2567717;23;19997;-72
2022/09/10 03:35:44;;;;;;;3.92;1.80;;;17.90;99.90;;;;;;2567429;23;20012;-72
2022/09/10 03:36:47;;;;;;;2.28;1.63;;;17.90;99.90;;;;;;2567625;23;20003;-72
2022/09/10 03:37:48;;;;;;;4.20;1.70;;;17.90;99.90;;;;;;2567795;23;20310;-72
2022/09/10 03:38:49;;;;;;;3.38;1.70;;;17.90;99.90;;;;;;2567796;23;20135;-72
2022/09/10 03:39:49;;;;;;;5.05;2.08;;;17.90;99.90;;;;;;2567886;23;20007;-73
2022/09/10 03:40:53;;;;;;;3.20;1.48;;;17.90;99.90;;;;;;2567955;23;20429;-72
2022/09/10 03:41:53;;;;;;;2.35;1.58;;;17.90;99.90;;;;;;2567938;23;20028;-72
2022/09/10 03:42:54;;;;;;;2.00;1.65;;;17.90;99.90;;;;;;2567539;23;20009;-73
2022/09/10 03:43:56;;;;;;;5.28;1.75;;;17.90;99.90;;;;;;2567418;23;20043;-73
2022/09/10 03:44:56;;;;;;;4.95;1.88;;;17.90;99.90;;;;;;2567363;23;20008;-72
2022/09/10 03:45:57;;;;;;;3.10;1.80;;;17.90;99.90;;;;;;2567427;23;20095;-73
2022/09/10 03:46:58;;;;;;;4.28;1.90;;;17.90;99.90;;;;;;2567409;23;20020;-72
2022/09/10 03:47:59;;;;;;;3.85;1.88;;;17.80;99.90;;;;;;2567623;23;20112;-72
2022/09/10 03:49:01;;;;;;;5.28;2.50;;;17.80;99.90;;;;;;2567800;23;20012;-72
2022/09/10 03:50:03;;;;;;;4.28;2.22;;;17.80;99.90;;;;;;2567668;23;20726;-72
2022/09/10 03:51:03;;;;;;;4.03;1.98;;;17.80;99.90;;;;;;2567338;23;20014;-72
2022/09/10 03:52:04;;;;;;;3.25;2.30;;;17.80;99.90;;;;;;2567883;23;20008;-72
2022/09/10 03:53:05;;;;;;;5.05;1.90;;;17.80;99.90;;;;;;2566991;23;20013;-72
2022/09/10 03:54:05;;;;;;;3.40;1.77;;;17.80;99.90;;;;;;2567609;23;19997;-72
2022/09/10 03:55:06;;;;;;;4.32;2.20;;;17.80;99.90;;;;;;2567145;23;20007;-72
2022/09/10 03:56:07;;;;;;;3.05;2.40;;;17.90;99.90;;;;;;2553903;23;20039;-73
2022/09/10 03:57:08;;;;;;;3.88;1.88;;;17.80;99.90;;;;;;2554747;23;20008;-72
2022/09/10 03:58:08;;;;;;;3.20;2.25;;;17.90;99.90;;;;;;2567189;23;20007;-72
2022/09/10 03:59:09;;;;;;;3.88;2.40;;;17.90;99.90;;;;;;2567122;23;20040;-72
2022/09/10 04:00:11;;;;;;;4.35;2.08;;;17.80;99.90;;;;;;2567989;23;20012;-72
2022/09/10 04:01:11;;;;;;;3.42;2.33;;;17.80;99.90;;;;;;2567553;23;20000;-72
2022/09/10 04:02:13;;;;;;;3.38;2.42;;;17.80;99.90;;;;;;2567807;23;20780;-72
2022/09/10 04:03:14;;;;;;;6.45;3.05;;;17.80;99.90;;;;;;2567079;23;20004;-72
2022/09/10 04:04:14;;;;;;;4.15;2.35;;;17.80;99.90;;;;;;2567601;23;20015;-73
2022/09/10 04:05:15;;;;;;;5.80;2.88;;;17.80;99.90;;;;;;2567757;23;20001;-73
2022/09/10 04:06:16;;;;;;;6.00;2.70;;;17.80;99.90;;;;;;2566898;23;20001;-73
2022/09/10 04:07:17;;;;;;;4.03;2.70;;;17.90;99.90;;;;;;2567561;23;20008;-73
2022/09/10 04:08:17;;;;;;;6.15;3.03;;;17.90;99.90;;;;;;2567719;23;20008;-73
2022/09/10 04:09:18;;;;;;;7.82;3.40;;;17.80;99.90;;;;;;2567818;23;20011;-73
2022/09/10 04:10:20;;;;;;;7.53;3.35;;;17.80;99.90;;;;;;2567641;23;20455;-73
2022/09/10 04:11:26;;;;;;;5.72;2.70;;;17.90;99.90;;;;;;2567795;23;20047;-73
2022/09/10 04:12:27;;;;;;;5.60;3.00;;;17.80;99.90;;;;;;2567807;23;20028;-73
2022/09/10 04:13:28;;;;;;;5.75;3.20;;;17.80;99.90;;;;;;2567007;23;20028;-73
2022/09/10 04:14:28;;;;;;;5.30;3.00;;;17.80;99.90;;;;;;2567720;23;20003;-73
2022/09/10 04:15:29;;;;;;;4.72;3.38;;;17.80;99.90;;;;;;2567430;23;20131;-73
2022/09/10 04:16:31;;;;;;;8.13;3.38;;;17.80;99.90;;;;;;2566458;23;20310;-73
2022/09/10 04:17:31;;;;;;;3.85;2.47;;;17.80;99.90;;;;;;2567538;23;20004;-73
2022/09/10 04:18:33;;;;;;;5.30;2.72;;;17.80;99.90;;;;;;2554066;23;19997;-73
2022/09/10 04:19:34;;;;;;;5.05;2.70;;;17.80;99.90;;;;;;2555126;23;20009;-73
2022/09/10 04:20:36;;;;;;;2.60;2.40;;;17.80;99.90;;;;;;2553664;23;20635;-73
2022/09/10 04:21:37;;;;;;;3.97;2.90;;;17.80;99.90;;;;;;2554517;23;20001;-73
2022/09/10 04:22:38;;;;;;;5.38;3.22;;;17.80;99.90;;;;;;2567632;23;20819;-73
2022/09/10 04:23:40;;;;;;;3.70;3.35;;;17.80;99.90;;;;;;2566885;23;20005;-73
2022/09/10 04:24:41;;;;;;;8.35;3.30;;;17.80;99.90;;;;;;2567588;23;20008;-72
2022/09/10 04:25:41;;;;;;;5.93;3.55;;;17.80;99.90;;;;;;2567220;23;20000;-72
2022/09/10 04:26:42;;;;;;;4.50;3.47;;;17.80;99.90;;;;;;2567235;23;20063;-73
2022/09/10 04:27:42;;;;;;;5.15;2.58;;;17.80;99.90;;;;;;2567475;23;20085;-72
2022/09/10 04:28:43;;;;;;;4.57;3.25;;;17.80;99.90;;;;;;2567334;23;20001;-73
2022/09/10 04:29:44;;;;;;;5.45;3.72;;;17.80;99.90;;;;;;2554005;23;20009;-72
2022/09/10 04:30:45;;;;;;;5.05;3.70;;;17.80;99.90;;;;;;2554616;23;20024;-73
2022/09/10 04:31:46;;;;;;;4.85;3.25;;;17.80;99.90;;;;;;2553923;23;20695;-73
2022/09/10 04:32:47;;;;;;;5.05;3.55;;;17.80;99.90;;;;;;2554486;23;20036;-72
2022/09/10 04:33:48;;;;;;;6.32;3.35;;;17.80;99.90;;;;;;2566801;23;20071;-73
2022/09/10 04:34:48;;;;;;;3.42;3.17;;;17.70;99.90;;;;;;2567793;23;20054;-73
2022/09/10 04:35:49;;;;;;;4.45;3.30;;;17.70;99.90;;;;;;2567232;23;20000;-72
2022/09/10 04:36:52;;;;;;;6.75;3.50;;;17.80;99.90;;;;;;2566799;23;20059;-72
2022/09/10 04:37:52;;;;;;;4.50;3.75;;;17.70;99.90;;;;;;2567381;23;20094;-72
2022/09/10 04:38:53;;;;;;;5.43;4.30;;;17.70;99.90;;;;;;2567233;23;20004;-72
2022/09/10 04:39:53;;;;;;;6.80;4.10;;;17.70;99.90;;;;;;2567375;23;20008;-72
2022/09/10 04:40:55;;;;;;;5.32;3.38;;;17.70;99.90;;;;;;2567747;23;20011;-72
2022/09/10 04:41:56;;;;;;;8.52;4.03;;;17.70;99.90;;;;;;2567345;23;20309;-72
2022/09/10 04:42:57;;;;;;;7.60;4.20;;;17.70;99.90;;;;;;2567418;23;20008;-72
2022/09/10 04:43:58;;;;;;;4.35;3.83;;;17.70;99.90;;;;;;2567675;23;20028;-72
2022/09/10 04:44:58;;;;;;;4.30;3.58;;;17.60;99.90;;;;;;2567639;23;20445;-73
2022/09/10 04:45:59;;;;;;;5.60;3.72;;;17.60;99.90;;;;;;2567191;23;20091;-73
2022/09/10 04:46:59;;;;;;;4.22;3.50;;;17.60;99.90;;;;;;2567312;23;20004;-72
2022/09/10 04:48:00;;;;;;;6.03;3.60;;;17.60;99.90;;;;;;2568406;23;20090;-72
2022/09/10 04:49:01;;;;;;;4.50;3.60;;;17.60;99.90;;;;;;2567313;23;20491;-73
2022/09/10 04:50:02;;;;;;;5.40;3.83;;;17.70;99.90;;;;;;2567417;23;20362;-72
2022/09/10 04:51:03;;;;;;;6.03;4.03;;;17.70;99.90;;;;;;2566835;23;20000;-73
2022/09/10 04:52:04;;;;;;;5.68;3.55;;;17.60;99.90;;;;;;2567199;23;20005;-72
2022/09/10 04:53:06;;;;;;;7.32;3.90;;;17.70;99.90;;;;;;2566927;23;20016;-73
2022/09/10 04:54:07;;;;;;;5.63;4.00;;;17.70;99.90;;;;;;2567682;23;20008;-73
2022/09/10 04:55:11;;;;;;;7.53;4.32;;;17.70;99.90;;;;;;2566979;23;20005;-73
2022/09/10 04:56:12;;;;;;;4.82;2.78;;;17.70;99.90;;;;;;2567132;23;20005;-73
2022/09/10 04:57:13;;;;;;;4.00;3.10;;;17.70;99.90;;;;;;2567723;23;20028;-73
2022/09/10 04:58:14;;;;;;;4.28;2.80;;;17.60;99.90;;;;;;2567516;23;20469;-73
2022/09/10 04:59:14;;;;;;;5.45;3.97;;;17.60;99.90;;;;;;2567384;23;20108;-73
2022/09/10 05:00:15;;;;;;;6.60;4.13;;;17.70;99.90;;;;;;2567574;23;20004;-73
2022/09/10 05:01:16;;;;;;;8.10;4.57;;;17.70;99.90;;;;;;2567126;23;20421;-73
2022/09/10 05:02:16;;;;;;;7.38;3.80;;;17.60;99.90;;;;;;2567256;23;20000;-73
2022/09/10 05:03:17;;;;;;;6.05;4.30;;;17.60;99.90;;;;;;2566709;23;20155;-73
2022/09/10 05:04:18;;;;;;;5.38;4.07;;;17.70;99.90;;;;;;2566715;23;20095;-73
2022/09/10 05:05:18;;;;;;;6.57;3.88;;;17.60;99.90;;;;;;2566506;23;20717;-73
2022/09/10 05:06:19;;;;;;;7.47;4.22;;;17.70;99.90;;;;;;2566993;23;20028;-73
2022/09/10 05:07:19;;;;;;;8.38;4.97;;;17.70;99.90;;;;;;2566999;23;20008;-73
2022/09/10 05:08:20;;;;;;;6.32;4.40;;;17.70;99.90;;;;;;2567186;23;20582;-73
2022/09/10 05:09:20;;;;;;;7.20;4.75;;;17.70;99.90;;;;;;2567863;23;20043;-73
2022/09/10 05:10:23;;;;;;;4.90;3.88;;;17.70;99.90;;;;;;2567512;23;20368;-73
2022/09/10 05:11:24;;;;;;;6.90;4.88;;;17.70;99.90;;;;;;2567695;23;20033;-73
2022/09/10 05:12:24;;;;;;;9.32;4.90;;;17.70;99.90;;;;;;2567312;23;20456;-73
2022/09/10 05:13:25;;;;;;;5.70;4.82;;;17.70;99.90;;;;;;2553298;23;20004;-73
2022/09/10 05:14:26;;;;;;;5.57;4.35;;;17.70;99.90;;;;;;2553871;23;20027;-73
2022/09/10 05:15:27;;;;;;;6.22;5.05;;;17.70;99.90;;;;;;2567083;23;20011;-73
2022/09/10 05:16:27;;;;;;;5.47;4.47;;;17.70;99.90;;;;;;2566880;23;20004;-72
2022/09/10 05:17:28;;;;;;;6.85;4.65;;;17.70;99.90;;;;;;2566900;23;20733;-72
2022/09/10 05:18:28;;;;;;;7.15;4.53;;;17.70;99.90;;;;;;2567158;23;20012;-72
2022/09/10 05:19:29;;;;;;;9.35;4.10;;;17.70;99.90;;;;;;2567273;23;20009;-73
2022/09/10 05:20:30;;;;;;;6.50;4.07;;;17.80;99.90;;;;;;2567394;23;20098;-72
2022/09/10 05:21:31;;;;;;;7.70;4.43;;;17.80;99.90;;;;;;2567323;23;20036;-73
2022/09/10 05:22:34;;;;;;;5.68;4.72;;;17.70;99.90;;;;;;2567528;23;20012;-72
2022/09/10 05:23:35;;;;;;;4.65;4.13;;;17.80;99.90;;;;;;2565889;23;20036;-73
2022/09/10 05:24:35;;;;;;;7.50;4.70;;;17.80;99.90;;;;;;2566923;23;20004;-73
2022/09/10 05:25:36;;;;;;;6.90;4.82;;;17.80;99.90;;;;;;2567376;23;20026;-73
2022/09/10 05:26:37;;;;;;;5.72;4.32;;;17.80;99.90;;;;;;2567301;23;20370;-73
2022/09/10 05:27:37;;;;;;;6.55;4.68;;;17.80;99.90;;;;;;2567508;23;20015;-73
2022/09/10 05:28:38;;;;;;;6.05;4.43;;;17.80;99.90;;;;;;2567205;23;20704;-73
2022/09/10 05:29:38;;;;;;;9.10;5.28;;;17.80;99.90;;;;;;2567114;23;20005;-73
2022/09/10 05:30:39;;;;;;;6.68;4.50;;;17.80;99.90;;;;;;2567417;23;19996;-73
2022/09/10 05:31:39;;;;;;;5.68;4.25;;;17.80;99.90;;;;;;2567451;23;20042;-73